sensor_id;sensor_type;location;lat;lon;timestamp;temperature;humidity
44833;DHT22;30569;51.252;9.830;2023-02-20T00:01:53;6.50;99.90
44833;DHT22;30569;51.252;9.830;2023-02-20T00:04:19;5.90;99.90
44833;DHT22;30569;51.252;9.830;2023-02-20T00:06:45;5.70;99.90
44833;DHT22;30569;51.252;9.830;2023-02-20T00:09:11;5.60;99.90
44833;DHT22;30569;51.252;9.830;2023-02-20T00:11:37;5.60;99.90
44833;DHT22;30569;51.252;9.830;2023-02-20T00:14:02;6.00;99.90
44833;DHT22;30569;51.252;9.830;2023-02-20T00:16:28;5.90;99.90
44833;DHT22;30569;51.252;9.830;2023-02-20T00:21:19;5.60;99.90
44833;DHT22;30569;51.252;9.830;2023-02-20T00:23:45;5.80;99.90
44833;DHT22;30569;51.252;9.830;2023-02-20T00:26:12;5.50;99.90
44833;DHT22;30569;51.252;9.830;2023-02-20T00:28:39;5.30;99.90
44833;DHT22;30569;51.252;9.830;2023-02-20T00:31:11;5.40;99.90
44833;DHT22;30569;51.252;9.830;2023-02-20T00:33:37;5.10;99.90
44833;DHT22;30569;51.252;9.830;2023-02-20T00:36:03;5.10;99.90
44833;DHT22;30569;51.252;9.830;2023-02-20T00:38:28;5.10;99.90
44833;DHT22;30569;51.252;9.830;2023-02-20T00:45:46;4.80;99.90
44833;DHT22;30569;51.252;9.830;2023-02-20T00:50:37;5.00;99.90
44833;DHT22;30569;51.252;9.830;2023-02-20T00:53:03;4.90;99.90
44833;DHT22;30569;51.252;9.830;2023-02-20T00:55:29;4.80;99.90
44833;DHT22;30569;51.252;9.830;2023-02-20T00:57:54;5.00;99.90
44833;DHT22;30569;51.252;9.830;2023-02-20T01:00:26;5.10;99.90
44833;DHT22;30569;51.252;9.830;2023-02-20T01:02:52;5.30;99.90
44833;DHT22;30569;51.252;9.830;2023-02-20T01:05:18;5.00;99.90
44833;DHT22;30569;51.252;9.830;2023-02-20T01:07:44;4.80;99.90
44833;DHT22;30569;51.252;9.830;2023-02-20T01:10:10;4.90;99.90
44833;DHT22;30569;51.252;9.830;2023-02-20T01:12:36;4.80;99.90
44833;DHT22;30569;51.252;9.830;2023-02-20T01:15:02;4.80;99.90
44833;DHT22;30569;51.252;9.830;2023-02-20T01:17:28;4.80;99.90
44833;DHT22;30569;51.252;9.830;2023-02-20T01:19:53;4.60;99.90
44833;DHT22;30569;51.252;9.830;2023-02-20T01:24:46;4.80;99.90
44833;DHT22;30569;51.252;9.830;2023-02-20T01:27:11;4.90;99.90
44833;DHT22;30569;51.252;9.830;2023-02-20T01:29:37;5.00;99.90
44833;DHT22;30569;51.252;9.830;2023-02-20T01:32:03;4.70;99.90
44833;DHT22;30569;51.252;9.830;2023-02-20T01:34:28;5.10;99.90
44833;DHT22;30569;51.252;9.830;2023-02-20T01:36:54;5.00;99.90
44833;DHT22;30569;51.252;9.830;2023-02-20T01:39:23;4.90;99.90
44833;DHT22;30569;51.252;9.830;2023-02-20T01:41:53;4.60;99.90
44833;DHT22;30569;51.252;9.830;2023-02-20T01:44:22;5.00;99.90
44833;DHT22;30569;51.252;9.830;2023-02-20T01:46:54;5.40;99.90
44833;DHT22;30569;51.252;9.830;2023-02-20T01:49:33;5.60;99.90
44833;DHT22;30569;51.252;9.830;2023-02-20T01:52:06;4.90;99.90
44833;DHT22;30569;51.252;9.830;2023-02-20T01:54:34;4.90;99.90
44833;DHT22;30569;51.252;9.830;2023-02-20T01:57:03;5.00;99.90
44833;DHT22;30569;51.252;9.830;2023-02-20T01:59:32;5.00;99.90
44833;DHT22;30569;51.252;9.830;2023-02-20T02:01:59;4.90;99.90
44833;DHT22;30569;51.252;9.830;2023-02-20T02:04:25;4.80;99.90
44833;DHT22;30569;51.252;9.830;2023-02-20T02:06:52;4.80;99.90
44833;DHT22;30569;51.252;9.830;2023-02-20T02:10:15;4.80;99.90
44833;DHT22;30569;51.252;9.830;2023-02-20T02:12:22;4.80;99.90
44833;DHT22;30569;51.252;9.830;2023-02-20T02:14:48;4.90;99.90
44833;DHT22;30569;51.252;9.830;2023-02-20T02:20:19;4.70;99.90
44833;DHT22;30569;51.252;9.830;2023-02-20T02:23:20;4.40;99.90
44833;DHT22;30569;51.252;9.830;2023-02-20T02:25:58;4.80;99.90
44833;DHT22;30569;51.252;9.830;2023-02-20T02:31:43;4.60;99.90
44833;DHT22;30569;51.252;9.830;2023-02-20T02:37:43;4.70;99.90
44833;DHT22;30569;51.252;9.830;2023-02-20T02:40:22;4.70;99.90
44833;DHT22;30569;51.252;9.830;2023-02-20T02:46:08;4.60;99.90
44833;DHT22;30569;51.252;9.830;2023-02-20T02:48:46;4.40;99.90
44833;DHT22;30569;51.252;9.830;2023-02-20T02:51:18;4.60;99.90
44833;DHT22;30569;51.252;9.830;2023-02-20T02:54:09;4.50;99.90
44833;DHT22;30569;51.252;9.830;2023-02-20T02:56:45;4.50;99.90
44833;DHT22;30569;51.252;9.830;2023-02-20T02:59:23;4.50;99.90
44833;DHT22;30569;51.252;9.830;2023-02-20T03:01:54;4.40;99.90
44833;DHT22;30569;51.252;9.830;2023-02-20T03:04:21;4.30;99.90
44833;DHT22;30569;51.252;9.830;2023-02-20T03:06:58;4.50;99.90
44833;DHT22;30569;51.252;9.830;2023-02-20T03:09:31;4.80;99.90
44833;DHT22;30569;51.252;9.830;2023-02-20T03:12:00;4.30;99.90
44833;DHT22;30569;51.252;9.830;2023-02-20T03:14:34;4.20;99.90
44833;DHT22;30569;51.252;9.830;2023-02-20T03:20:50;4.00;99.90
44833;DHT22;30569;51.252;9.830;2023-02-20T03:23:22;4.00;99.90
44833;DHT22;30569;51.252;9.830;2023-02-20T03:25:58;3.90;99.90
44833;DHT22;30569;51.252;9.830;2023-02-20T03:28:37;4.00;99.90
44833;DHT22;30569;51.252;9.830;2023-02-20T03:31:08;3.90;99.90
44833;DHT22;30569;51.252;9.830;2023-02-20T03:33:44;3.80;99.90
44833;DHT22;30569;51.252;9.830;2023-02-20T03:36:49;3.30;99.90
44833;DHT22;30569;51.252;9.830;2023-02-20T03:39:39;3.70;99.90
44833;DHT22;30569;51.252;9.830;2023-02-20T03:42:24;3.70;99.90
44833;DHT22;30569;51.252;9.830;2023-02-20T03:45:10;3.80;99.90
44833;DHT22;30569;51.252;9.830;2023-02-20T03:47:40;3.70;99.90
44833;DHT22;30569;51.252;9.830;2023-02-20T03:50:09;3.70;99.90
44833;DHT22;30569;51.252;9.830;2023-02-20T03:52:54;3.90;99.90
44833;DHT22;30569;51.252;9.830;2023-02-20T03:55:20;3.60;99.90
44833;DHT22;30569;51.252;9.830;2023-02-20T03:57:52;3.90;99.90
44833;DHT22;30569;51.252;9.830;2023-02-20T04:00:22;3.80;99.90
44833;DHT22;30569;51.252;9.830;2023-02-20T04:02:51;3.80;99.90
44833;DHT22;30569;51.252;9.830;2023-02-20T04:05:26;4.00;99.90
44833;DHT22;30569;51.252;9.830;2023-02-20T04:07:58;4.10;99.90
44833;DHT22;30569;51.252;9.830;2023-02-20T04:10:30;4.10;99.90
44833;DHT22;30569;51.252;9.830;2023-02-20T04:12:57;4.00;99.90
44833;DHT22;30569;51.252;9.830;2023-02-20T04:15:26;4.10;99.90
44833;DHT22;30569;51.252;9.830;2023-02-20T04:18:00;3.80;99.90
44833;DHT22;30569;51.252;9.830;2023-02-20T04:20:27;3.90;99.90
44833;DHT22;30569;51.252;9.830;2023-02-20T04:22:57;4.00;99.90
44833;DHT22;30569;51.252;9.830;2023-02-20T04:25:29;4.00;99.90
44833;DHT22;30569;51.252;9.830;2023-02-20T04:28:00;4.20;99.90
44833;DHT22;30569;51.252;9.830;2023-02-20T04:30:26;4.20;99.90
44833;DHT22;30569;51.252;9.830;2023-02-20T04:32:52;4.20;99.90
44833;DHT22;30569;51.252;9.830;2023-02-20T04:35:18;4.20;99.90
44833;DHT22;30569;51.252;9.830;2023-02-20T04:37:44;4.20;99.90
44833;DHT22;30569;51.252;9.830;2023-02-20T04:40:13;4.10;99.90
44833;DHT22;30569;51.252;9.830;2023-02-20T04:42:39;4.30;99.90
44833;DHT22;30569;51.252;9.830;2023-02-20T04:45:04;4.30;99.90
44833;DHT22;30569;51.252;9.830;2023-02-20T04:47:30;4.20;99.90
44833;DHT22;30569;51.252;9.830;2023-02-20T04:52:21;4.10;99.90
44833;DHT22;30569;51.252;9.830;2023-02-20T04:54:49;4.20;99.90
44833;DHT22;30569;51.252;9.830;2023-02-20T04:57:15;4.10;99.90
44833;DHT22;30569;51.252;9.830;2023-02-20T04:59:41;4.20;99.90
44833;DHT22;30569;51.252;9.830;2023-02-20T05:02:07;4.10;99.90
44833;DHT22;30569;51.252;9.830;2023-02-20T05:04:34;4.10;99.90
44833;DHT22;30569;51.252;9.830;2023-02-20T05:09:25;3.90;99.90
44833;DHT22;30569;51.252;9.830;2023-02-20T05:11:51;4.20;99.90
44833;DHT22;30569;51.252;9.830;2023-02-20T05:14:17;3.90;99.90
44833;DHT22;30569;51.252;9.830;2023-02-20T05:16:43;4.10;99.90
44833;DHT22;30569;51.252;9.830;2023-02-20T05:19:10;4.10;99.90
44833;DHT22;30569;51.252;9.830;2023-02-20T05:21:36;3.90;99.90
44833;DHT22;30569;51.252;9.830;2023-02-20T05:24:20;4.00;99.90
44833;DHT22;30569;51.252;9.830;2023-02-20T05:26:46;4.10;99.90
44833;DHT22;30569;51.252;9.830;2023-02-20T05:31:41;4.20;99.90
44833;DHT22;30569;51.252;9.830;2023-02-20T05:34:07;4.00;99.90
44833;DHT22;30569;51.252;9.830;2023-02-20T05:36:32;4.00;99.90
44833;DHT22;30569;51.252;9.830;2023-02-20T05:38:58;4.50;99.90
44833;DHT22;30569;51.252;9.830;2023-02-20T05:43:50;4.10;99.90
44833;DHT22;30569;51.252;9.830;2023-02-20T05:46:16;4.30;99.90
44833;DHT22;30569;51.252;9.830;2023-02-20T05:51:08;4.30;99.90
44833;DHT22;30569;51.252;9.830;2023-02-20T05:53:33;4.10;99.90
44833;DHT22;30569;51.252;9.830;2023-02-20T05:58:25;4.20;99.90
44833;DHT22;30569;51.252;9.830;2023-02-20T06:00:51;4.20;99.90
44833;DHT22;30569;51.252;9.830;2023-02-20T06:05:43;3.90;99.90
44833;DHT22;30569;51.252;9.830;2023-02-20T06:08:09;4.30;99.90
44833;DHT22;30569;51.252;9.830;2023-02-20T06:10:35;4.30;99.90
44833;DHT22;30569;51.252;9.830;2023-02-20T06:13:01;4.20;99.90
44833;DHT22;30569;51.252;9.830;2023-02-20T06:22:47;4.20;99.90
44833;DHT22;30569;51.252;9.830;2023-02-20T06:25:12;4.30;99.90
44833;DHT22;30569;51.252;9.830;2023-02-20T06:27:38;3.90;99.90
44833;DHT22;30569;51.252;9.830;2023-02-20T06:30:04;4.10;99.90
44833;DHT22;30569;51.252;9.830;2023-02-20T06:32:30;4.40;99.90
44833;DHT22;30569;51.252;9.830;2023-02-20T06:34:56;4.30;99.90
44833;DHT22;30569;51.252;9.830;2023-02-20T06:37:21;4.00;99.90
44833;DHT22;30569;51.252;9.830;2023-02-20T06:39:47;4.30;99.90
44833;DHT22;30569;51.252;9.830;2023-02-20T06:42:14;4.30;99.90
44833;DHT22;30569;51.252;9.830;2023-02-20T06:44:39;4.30;99.90
44833;DHT22;30569;51.252;9.830;2023-02-20T06:47:05;4.30;99.90
44833;DHT22;30569;51.252;9.830;2023-02-20T06:49:34;4.50;99.90
44833;DHT22;30569;51.252;9.830;2023-02-20T06:52:00;4.70;99.90
44833;DHT22;30569;51.252;9.830;2023-02-20T06:54:26;4.50;99.90
44833;DHT22;30569;51.252;9.830;2023-02-20T06:56:51;4.20;99.90
44833;DHT22;30569;51.252;9.830;2023-02-20T06:59:17;4.60;99.90
44833;DHT22;30569;51.252;9.830;2023-02-20T07:01:43;4.60;99.90
44833;DHT22;30569;51.252;9.830;2023-02-20T07:04:22;4.50;99.90
44833;DHT22;30569;51.252;9.830;2023-02-20T07:06:48;4.60;99.90
44833;DHT22;30569;51.252;9.830;2023-02-20T07:09:15;4.60;99.90
44833;DHT22;30569;51.252;9.830;2023-02-20T07:11:41;4.60;99.90
44833;DHT22;30569;51.252;9.830;2023-02-20T07:16:32;4.60;99.90
44833;DHT22;30569;51.252;9.830;2023-02-20T07:21:25;4.70;99.90
44833;DHT22;30569;51.252;9.830;2023-02-20T07:23:50;4.80;99.90
44833;DHT22;30569;51.252;9.830;2023-02-20T07:26:28;4.70;99.90
44833;DHT22;30569;51.252;9.830;2023-02-20T07:28:54;4.90;99.90
44833;DHT22;30569;51.252;9.830;2023-02-20T07:31:23;4.70;99.90
44833;DHT22;30569;51.252;9.830;2023-02-20T07:33:49;4.80;99.90
44833;DHT22;30569;51.252;9.830;2023-02-20T07:36:15;4.90;99.90
44833;DHT22;30569;51.252;9.830;2023-02-20T07:38:41;5.00;99.90
44833;DHT22;30569;51.252;9.830;2023-02-20T07:41:07;5.20;99.90
44833;DHT22;30569;51.252;9.830;2023-02-20T07:43:33;4.80;99.90
44833;DHT22;30569;51.252;9.830;2023-02-20T07:45:59;4.70;99.90
44833;DHT22;30569;51.252;9.830;2023-02-20T07:48:24;4.80;99.90
44833;DHT22;30569;51.252;9.830;2023-02-20T07:50:50;4.90;99.90
44833;DHT22;30569;51.252;9.830;2023-02-20T07:53:18;4.90;99.90
44833;DHT22;30569;51.252;9.830;2023-02-20T07:58:10;5.10;99.90
44833;DHT22;30569;51.252;9.830;2023-02-20T08:00:36;5.00;99.90
44833;DHT22;30569;51.252;9.830;2023-02-20T08:03:02;5.00;99.90
44833;DHT22;30569;51.252;9.830;2023-02-20T08:05:27;5.20;99.90
44833;DHT22;30569;51.252;9.830;2023-02-20T08:07:55;5.30;99.90
44833;DHT22;30569;51.252;9.830;2023-02-20T08:10:25;5.20;99.90
44833;DHT22;30569;51.252;9.830;2023-02-20T08:12:51;5.40;99.90
44833;DHT22;30569;51.252;9.830;2023-02-20T08:15:18;5.30;99.90
44833;DHT22;30569;51.252;9.830;2023-02-20T08:20:10;5.60;99.90
44833;DHT22;30569;51.252;9.830;2023-02-20T08:22:36;5.60;99.90
44833;DHT22;30569;51.252;9.830;2023-02-20T08:25:03;5.70;99.90
44833;DHT22;30569;51.252;9.830;2023-02-20T08:27:29;5.70;99.90
44833;DHT22;30569;51.252;9.830;2023-02-20T08:29:55;5.80;99.90
44833;DHT22;30569;51.252;9.830;2023-02-20T08:32:21;5.90;99.90
44833;DHT22;30569;51.252;9.830;2023-02-20T08:34:46;5.80;99.90
44833;DHT22;30569;51.252;9.830;2023-02-20T08:37:12;5.80;99.90
44833;DHT22;30569;51.252;9.830;2023-02-20T08:39:37;5.80;99.90
44833;DHT22;30569;51.252;9.830;2023-02-20T08:42:03;5.80;99.90
44833;DHT22;30569;51.252;9.830;2023-02-20T08:44:28;6.10;99.90
44833;DHT22;30569;51.252;9.830;2023-02-20T08:46:54;6.10;99.90
44833;DHT22;30569;51.252;9.830;2023-02-20T08:49:20;6.00;99.90
44833;DHT22;30569;51.252;9.830;2023-02-20T08:51:47;6.00;99.90
44833;DHT22;30569;51.252;9.830;2023-02-20T08:54:14;6.00;99.90
44833;DHT22;30569;51.252;9.830;2023-02-20T08:56:43;6.20;99.90
44833;DHT22;30569;51.252;9.830;2023-02-20T08:59:09;6.30;99.90
44833;DHT22;30569;51.252;9.830;2023-02-20T09:01:35;6.30;99.90
44833;DHT22;30569;51.252;9.830;2023-02-20T09:04:01;6.30;99.90
44833;DHT22;30569;51.252;9.830;2023-02-20T09:06:27;6.50;99.90
44833;DHT22;30569;51.252;9.830;2023-02-20T09:08:53;6.30;99.90
44833;DHT22;30569;51.252;9.830;2023-02-20T09:11:19;6.40;99.90
44833;DHT22;30569;51.252;9.830;2023-02-20T09:13:47;6.60;99.90
44833;DHT22;30569;51.252;9.830;2023-02-20T09:16:14;6.50;99.90
44833;DHT22;30569;51.252;9.830;2023-02-20T09:18:40;6.40;99.90
44833;DHT22;30569;51.252;9.830;2023-02-20T09:21:10;6.40;99.90
44833;DHT22;30569;51.252;9.830;2023-02-20T09:23:37;6.30;99.90
44833;DHT22;30569;51.252;9.830;2023-02-20T09:26:03;6.50;99.90
44833;DHT22;30569;51.252;9.830;2023-02-20T09:28:29;6.40;99.90
44833;DHT22;30569;51.252;9.830;2023-02-20T09:30:55;6.60;99.90
44833;DHT22;30569;51.252;9.830;2023-02-20T09:33:22;6.90;99.90
44833;DHT22;30569;51.252;9.830;2023-02-20T09:35:48;7.10;99.90
44833;DHT22;30569;51.252;9.830;2023-02-20T09:38:16;7.60;99.90
44833;DHT22;30569;51.252;9.830;2023-02-20T09:40:42;7.60;99.90
44833;DHT22;30569;51.252;9.830;2023-02-20T09:43:27;8.00;99.90
44833;DHT22;30569;51.252;9.830;2023-02-20T09:46:11;8.10;99.90
44833;DHT22;30569;51.252;9.830;2023-02-20T09:51:27;9.50;99.90
44833;DHT22;30569;51.252;9.830;2023-02-20T09:56:32;8.80;99.90
44833;DHT22;30569;51.252;9.830;2023-02-20T09:59:11;8.80;99.90
44833;DHT22;30569;51.252;9.830;2023-02-20T10:01:42;8.70;99.90
44833;DHT22;30569;51.252;9.830;2023-02-20T10:04:18;8.80;99.90
44833;DHT22;30569;51.252;9.830;2023-02-20T10:06:44;9.20;99.90
44833;DHT22;30569;51.252;9.830;2023-02-20T10:09:13;9.10;99.90
44833;DHT22;30569;51.252;9.830;2023-02-20T10:12:34;9.90;99.90
44833;DHT22;30569;51.252;9.830;2023-02-20T10:15:02;10.20;99.90
44833;DHT22;30569;51.252;9.830;2023-02-20T10:25:32;13.10;99.80
44833;DHT22;30569;51.252;9.830;2023-02-20T10:28:08;12.30;99.90
44833;DHT22;30569;51.252;9.830;2023-02-20T10:30:37;13.50;99.90
44833;DHT22;30569;51.252;9.830;2023-02-20T10:35:44;11.80;99.90
44833;DHT22;30569;51.252;9.830;2023-02-20T10:38:14;11.80;99.90
44833;DHT22;30569;51.252;9.830;2023-02-20T10:40:47;12.90;99.90
44833;DHT22;30569;51.252;9.830;2023-02-20T10:43:24;12.90;99.90
44833;DHT22;30569;51.252;9.830;2023-02-20T10:46:16;13.00;99.90
44833;DHT22;30569;51.252;9.830;2023-02-20T10:48:44;12.00;99.90
44833;DHT22;30569;51.252;9.830;2023-02-20T10:51:35;11.40;99.90
44833;DHT22;30569;51.252;9.830;2023-02-20T10:54:19;10.80;99.90
44833;DHT22;30569;51.252;9.830;2023-02-20T10:59:42;10.10;99.90
44833;DHT22;30569;51.252;9.830;2023-02-20T11:02:18;9.80;99.90
44833;DHT22;30569;51.252;9.830;2023-02-20T11:04:53;9.80;99.90
44833;DHT22;30569;51.252;9.830;2023-02-20T11:07:20;10.00;99.90
44833;DHT22;30569;51.252;9.830;2023-02-20T11:09:47;10.10;99.90
44833;DHT22;30569;51.252;9.830;2023-02-20T11:12:45;10.20;99.90
44833;DHT22;30569;51.252;9.830;2023-02-20T11:15:15;10.30;99.90
44833;DHT22;30569;51.252;9.830;2023-02-20T11:17:41;10.30;99.90
44833;DHT22;30569;51.252;9.830;2023-02-20T11:23:46;9.90;99.90
44833;DHT22;30569;51.252;9.830;2023-02-20T11:26:25;9.90;99.90
44833;DHT22;30569;51.252;9.830;2023-02-20T11:29:13;10.00;99.90
44833;DHT22;30569;51.252;9.830;2023-02-20T11:31:42;10.00;99.90
44833;DHT22;30569;51.252;9.830;2023-02-20T11:34:17;9.90;99.90
44833;DHT22;30569;51.252;9.830;2023-02-20T11:36:47;9.90;99.90
44833;DHT22;30569;51.252;9.830;2023-02-20T11:41:49;10.40;99.90
44833;DHT22;30569;51.252;9.830;2023-02-20T11:44:27;10.40;99.90
44833;DHT22;30569;51.252;9.830;2023-02-20T11:47:21;10.50;99.90
44833;DHT22;30569;51.252;9.830;2023-02-20T11:49:48;10.30;99.90
44833;DHT22;30569;51.252;9.830;2023-02-20T11:52:22;10.40;99.90
44833;DHT22;30569;51.252;9.830;2023-02-20T11:55:09;10.50;99.90
44833;DHT22;30569;51.252;9.830;2023-02-20T11:57:41;10.60;99.90
44833;DHT22;30569;51.252;9.830;2023-02-20T12:00:20;10.80;99.90
44833;DHT22;30569;51.252;9.830;2023-02-20T12:02:50;10.60;99.90
44833;DHT22;30569;51.252;9.830;2023-02-20T12:05:16;10.40;99.90
44833;DHT22;30569;51.252;9.830;2023-02-20T12:12:54;10.30;99.90
44833;DHT22;30569;51.252;9.830;2023-02-20T12:15:23;10.50;99.90
44833;DHT22;30569;51.252;9.830;2023-02-20T12:20:25;10.70;99.90
44833;DHT22;30569;51.252;9.830;2023-02-20T12:23:22;10.80;99.90
44833;DHT22;30569;51.252;9.830;2023-02-20T12:35:17;10.60;99.90
44833;DHT22;30569;51.252;9.830;2023-02-20T12:46:04;10.80;99.90
44833;DHT22;30569;51.252;9.830;2023-02-20T12:48:54;10.90;99.90
44833;DHT22;30569;51.252;9.830;2023-02-20T12:52:01;11.10;99.90
44833;DHT22;30569;51.252;9.830;2023-02-20T12:57:17;11.20;99.90
44833;DHT22;30569;51.252;9.830;2023-02-20T13:02:38;11.50;99.90
44833;DHT22;30569;51.252;9.830;2023-02-20T13:05:06;11.80;99.90
44833;DHT22;30569;51.252;9.830;2023-02-20T13:07:41;11.90;99.90
44833;DHT22;30569;51.252;9.830;2023-02-20T13:10:15;11.90;99.90
44833;DHT22;30569;51.252;9.830;2023-02-20T13:12:42;11.90;99.90
44833;DHT22;30569;51.252;9.830;2023-02-20T13:20:43;12.00;99.90
44833;DHT22;30569;51.252;9.830;2023-02-20T13:25:48;11.90;99.90
44833;DHT22;30569;51.252;9.830;2023-02-20T13:28:34;11.70;99.90
44833;DHT22;30569;51.252;9.830;2023-02-20T13:33:37;11.30;99.90
44833;DHT22;30569;51.252;9.830;2023-02-20T13:36:18;11.40;99.90
44833;DHT22;30569;51.252;9.830;2023-02-20T13:55:24;11.20;99.90
44833;DHT22;30569;51.252;9.830;2023-02-20T13:57:56;11.30;99.90
44833;DHT22;30569;51.252;9.830;2023-02-20T14:00:28;11.60;99.90
44833;DHT22;30569;51.252;9.830;2023-02-20T14:02:58;12.00;99.90
44833;DHT22;30569;51.252;9.830;2023-02-20T14:05:29;12.00;99.90
44833;DHT22;30569;51.252;9.830;2023-02-20T14:07:56;12.00;99.90
44833;DHT22;30569;51.252;9.830;2023-02-20T14:10:33;11.90;99.90
44833;DHT22;30569;51.252;9.830;2023-02-20T14:13:10;11.80;99.90
44833;DHT22;30569;51.252;9.830;2023-02-20T14:15:49;11.90;99.90
44833;DHT22;30569;51.252;9.830;2023-02-20T14:18:23;11.90;99.90
44833;DHT22;30569;51.252;9.830;2023-02-20T14:20:50;12.00;99.90
44833;DHT22;30569;51.252;9.830;2023-02-20T14:23:23;11.90;99.90
44833;DHT22;30569;51.252;9.830;2023-02-20T14:28:18;11.90;99.90
44833;DHT22;30569;51.252;9.830;2023-02-20T14:30:44;11.90;99.90
44833;DHT22;30569;51.252;9.830;2023-02-20T14:33:23;11.70;99.90
44833;DHT22;30569;51.252;9.830;2023-02-20T14:39:26;11.70;99.90
44833;DHT22;30569;51.252;9.830;2023-02-20T14:42:00;12.00;99.90
44833;DHT22;30569;51.252;9.830;2023-02-20T14:44:27;11.90;99.90
44833;DHT22;30569;51.252;9.830;2023-02-20T14:47:04;12.10;99.90
44833;DHT22;30569;51.252;9.830;2023-02-20T14:49:32;12.10;99.90
44833;DHT22;30569;51.252;9.830;2023-02-20T14:52:24;12.10;99.90
44833;DHT22;30569;51.252;9.830;2023-02-20T14:54:58;12.20;99.90
44833;DHT22;30569;51.252;9.830;2023-02-20T14:57:25;12.40;99.90
44833;DHT22;30569;51.252;9.830;2023-02-20T15:00:06;12.40;99.90
44833;DHT22;30569;51.252;9.830;2023-02-20T15:02:32;11.90;99.90
44833;DHT22;30569;51.252;9.830;2023-02-20T15:05:05;11.80;99.90
44833;DHT22;30569;51.252;9.830;2023-02-20T15:07:31;11.90;99.90
44833;DHT22;30569;51.252;9.830;2023-02-20T15:09:59;11.80;99.90
44833;DHT22;30569;51.252;9.830;2023-02-20T15:12:38;11.90;99.90
44833;DHT22;30569;51.252;9.830;2023-02-20T15:15:13;11.90;99.90
44833;DHT22;30569;51.252;9.830;2023-02-20T15:17:41;11.90;99.90
44833;DHT22;30569;51.252;9.830;2023-02-20T15:20:39;11.80;99.90
44833;DHT22;30569;51.252;9.830;2023-02-20T15:23:27;11.50;99.90
44833;DHT22;30569;51.252;9.830;2023-02-20T15:25:53;11.50;99.90
44833;DHT22;30569;51.252;9.830;2023-02-20T15:33:32;11.40;99.90
44833;DHT22;30569;51.252;9.830;2023-02-20T15:35:58;11.40;99.90
44833;DHT22;30569;51.252;9.830;2023-02-20T15:38:29;11.10;99.90
44833;DHT22;30569;51.252;9.830;2023-02-20T15:40:59;11.10;99.90
44833;DHT22;30569;51.252;9.830;2023-02-20T15:43:25;11.30;99.90
44833;DHT22;30569;51.252;9.830;2023-02-20T15:45:51;11.60;99.90
44833;DHT22;30569;51.252;9.830;2023-02-20T15:48:17;11.70;99.90
44833;DHT22;30569;51.252;9.830;2023-02-20T15:50:43;11.70;99.90
44833;DHT22;30569;51.252;9.830;2023-02-20T15:53:28;11.90;99.90
44833;DHT22;30569;51.252;9.830;2023-02-20T15:55:55;11.70;99.90
44833;DHT22;30569;51.252;9.830;2023-02-20T16:00:52;11.20;99.90
44833;DHT22;30569;51.252;9.830;2023-02-20T16:03:20;11.20;99.90
44833;DHT22;30569;51.252;9.830;2023-02-20T16:05:45;11.10;99.90
44833;DHT22;30569;51.252;9.830;2023-02-20T16:08:11;11.00;99.90
44833;DHT22;30569;51.252;9.830;2023-02-20T16:13:02;11.40;99.90
44833;DHT22;30569;51.252;9.830;2023-02-20T16:15:28;11.40;99.90
44833;DHT22;30569;51.252;9.830;2023-02-20T16:17:54;11.50;99.90
44833;DHT22;30569;51.252;9.830;2023-02-20T16:20:22;11.70;99.90
44833;DHT22;30569;51.252;9.830;2023-02-20T16:22:49;11.80;99.90
44833;DHT22;30569;51.252;9.830;2023-02-20T16:25:17;11.20;99.90
44833;DHT22;30569;51.252;9.830;2023-02-20T16:27:44;11.70;99.90
44833;DHT22;30569;51.252;9.830;2023-02-20T16:30:22;11.60;99.90
44833;DHT22;30569;51.252;9.830;2023-02-20T16:32:49;11.90;99.90
44833;DHT22;30569;51.252;9.830;2023-02-20T16:35:16;11.80;99.90
44833;DHT22;30569;51.252;9.830;2023-02-20T16:37:42;11.80;99.90
44833;DHT22;30569;51.252;9.830;2023-02-20T16:40:07;11.70;99.90
44833;DHT22;30569;51.252;9.830;2023-02-20T16:42:36;11.40;99.90
44833;DHT22;30569;51.252;9.830;2023-02-20T16:47:37;11.40;99.90
44833;DHT22;30569;51.252;9.830;2023-02-20T16:50:03;11.40;99.90
44833;DHT22;30569;51.252;9.830;2023-02-20T16:52:38;10.80;99.90
44833;DHT22;30569;51.252;9.830;2023-02-20T16:55:26;10.60;99.90
44833;DHT22;30569;51.252;9.830;2023-02-20T16:57:52;10.60;99.90
44833;DHT22;30569;51.252;9.830;2023-02-20T17:00:22;10.60;99.90
44833;DHT22;30569;51.252;9.830;2023-02-20T17:02:47;10.70;99.90
44833;DHT22;30569;51.252;9.830;2023-02-20T17:05:13;10.90;99.90
44833;DHT22;30569;51.252;9.830;2023-02-20T17:07:39;11.40;99.90
44833;DHT22;30569;51.252;9.830;2023-02-20T17:10:06;11.10;99.90
44833;DHT22;30569;51.252;9.830;2023-02-20T17:12:32;10.90;99.90
44833;DHT22;30569;51.252;9.830;2023-02-20T17:14:59;10.70;99.90
44833;DHT22;30569;51.252;9.830;2023-02-20T17:17:25;10.20;99.90
44833;DHT22;30569;51.252;9.830;2023-02-20T17:19:51;10.00;99.90
44833;DHT22;30569;51.252;9.830;2023-02-20T17:22:22;9.50;99.90
44833;DHT22;30569;51.252;9.830;2023-02-20T17:24:48;9.00;99.90
44833;DHT22;30569;51.252;9.830;2023-02-20T17:27:14;9.20;99.90
44833;DHT22;30569;51.252;9.830;2023-02-20T17:29:44;8.90;99.90
44833;DHT22;30569;51.252;9.830;2023-02-20T17:32:11;9.00;99.90
44833;DHT22;30569;51.252;9.830;2023-02-20T17:34:37;9.10;99.90
44833;DHT22;30569;51.252;9.830;2023-02-20T17:37:03;9.10;99.90
44833;DHT22;30569;51.252;9.830;2023-02-20T17:39:28;9.00;99.90
44833;DHT22;30569;51.252;9.830;2023-02-20T17:41:55;9.20;99.90
44833;DHT22;30569;51.252;9.830;2023-02-20T17:44:22;9.30;99.90
44833;DHT22;30569;51.252;9.830;2023-02-20T17:46:50;9.10;99.90
44833;DHT22;30569;51.252;9.830;2023-02-20T17:49:16;9.00;99.90
44833;DHT22;30569;51.252;9.830;2023-02-20T17:51:43;8.80;99.90
44833;DHT22;30569;51.252;9.830;2023-02-20T17:54:09;8.80;99.90
44833;DHT22;30569;51.252;9.830;2023-02-20T17:56:40;8.80;99.90
44833;DHT22;30569;51.252;9.830;2023-02-20T17:59:05;8.90;99.90
44833;DHT22;30569;51.252;9.830;2023-02-20T18:01:31;9.20;99.90
44833;DHT22;30569;51.252;9.830;2023-02-20T18:03:56;9.30;99.90
44833;DHT22;30569;51.252;9.830;2023-02-20T18:06:22;9.60;99.90
44833;DHT22;30569;51.252;9.830;2023-02-20T18:08:48;9.50;99.90
44833;DHT22;30569;51.252;9.830;2023-02-20T18:11:16;9.80;99.90
44833;DHT22;30569;51.252;9.830;2023-02-20T18:13:42;9.40;99.90
44833;DHT22;30569;51.252;9.830;2023-02-20T18:16:08;9.30;99.90
44833;DHT22;30569;51.252;9.830;2023-02-20T18:18:33;9.40;99.90
44833;DHT22;30569;51.252;9.830;2023-02-20T18:20:59;9.30;99.90
44833;DHT22;30569;51.252;9.830;2023-02-20T18:23:25;9.50;99.90
44833;DHT22;30569;51.252;9.830;2023-02-20T18:25:51;9.20;99.90
44833;DHT22;30569;51.252;9.830;2023-02-20T18:28:17;9.40;99.90
44833;DHT22;30569;51.252;9.830;2023-02-20T18:30:44;9.90;99.90
44833;DHT22;30569;51.252;9.830;2023-02-20T18:33:10;9.70;99.90
44833;DHT22;30569;51.252;9.830;2023-02-20T18:35:35;9.90;99.90
44833;DHT22;30569;51.252;9.830;2023-02-20T18:38:01;10.10;99.90
44833;DHT22;30569;51.252;9.830;2023-02-20T18:40:28;10.30;99.90
44833;DHT22;30569;51.252;9.830;2023-02-20T18:42:54;10.00;99.90